sensor_id;sensor_type;location;lat;lon;timestamp;pressure;altitude;pressure_sealevel;temperature;humidity
28312;BME280;15572;48.810;9.148;2023-02-20T00:02:11;99246.44;;;8.44;100.00
28312;BME280;15572;48.810;9.148;2023-02-20T00:07:08;99240.53;;;8.41;100.00
28312;BME280;15572;48.810;9.148;2023-02-20T00:12:06;99240.28;;;8.34;100.00
28312;BME280;15572;48.810;9.148;2023-02-20T00:17:02;99242.91;;;8.26;100.00
28312;BME280;15572;48.810;9.148;2023-02-20T00:21:59;99231.91;;;8.20;100.00
28312;BME280;15572;48.810;9.148;2023-02-20T00:26:55;99233.81;;;8.27;100.00
28312;BME280;15572;48.810;9.148;2023-02-20T00:31:55;99237.59;;;8.34;100.00
28312;BME280;15572;48.810;9.148;2023-02-20T00:36:52;99238.59;;;8.33;100.00
28312;BME280;15572;48.810;9.148;2023-02-20T00:41:49;99256.25;;;8.28;100.00
28312;BME280;15572;48.810;9.148;2023-02-20T00:46:46;99268.13;;;8.17;100.00
28312;BME280;15572;48.810;9.148;2023-02-20T00:51:43;99269.13;;;8.16;100.00
28312;BME280;15572;48.810;9.148;2023-02-20T00:56:40;99271.75;;;8.08;100.00
28312;BME280;15572;48.810;9.148;2023-02-20T01:01:36;99268.44;;;7.96;100.00
28312;BME280;15572;48.810;9.148;2023-02-20T01:06:33;99262.59;;;7.83;100.00
28312;BME280;15572;48.810;9.148;2023-02-20T01:11:31;99269.59;;;7.76;100.00
28312;BME280;15572;48.810;9.148;2023-02-20T01:16:27;99278.00;;;7.73;100.00
28312;BME280;15572;48.810;9.148;2023-02-20T01:21:24;99260.81;;;7.74;100.00
28312;BME280;15572;48.810;9.148;2023-02-20T01:26:20;99256.19;;;7.67;100.00
28312;BME280;15572;48.810;9.148;2023-02-20T01:31:18;99251.53;;;7.59;100.00
28312;BME280;15572;48.810;9.148;2023-02-20T01:36:15;99263.75;;;7.63;100.00
28312;BME280;15572;48.810;9.148;2023-02-20T01:41:11;99243.47;;;7.59;100.00
28312;BME280;15572;48.810;9.148;2023-02-20T01:46:43;99238.84;;;7.51;100.00
28312;BME280;15572;48.810;9.148;2023-02-20T01:51:41;99238.38;;;7.56;100.00
28312;BME280;15572;48.810;9.148;2023-02-20T01:56:39;99231.38;;;7.45;100.00
28312;BME280;15572;48.810;9.148;2023-02-20T02:01:36;99226.28;;;7.42;100.00
28312;BME280;15572;48.810;9.148;2023-02-20T02:06:38;99235.66;;;7.38;100.00
28312;BME280;15572;48.810;9.148;2023-02-20T02:11:35;99228.16;;;7.32;100.00
28312;BME280;15572;48.810;9.148;2023-02-20T02:16:37;99229.47;;;7.28;100.00
28312;BME280;15572;48.810;9.148;2023-02-20T02:21:50;99228.34;;;7.31;100.00
28312;BME280;15572;48.810;9.148;2023-02-20T02:38:31;99221.28;;;7.65;100.00
28312;BME280;15572;48.810;9.148;2023-02-20T02:43:38;99217.34;;;7.59;100.00
28312;BME280;15572;48.810;9.148;2023-02-20T02:48:40;99221.13;;;7.67;100.00
28312;BME280;15572;48.810;9.148;2023-02-20T02:54:10;99206.56;;;7.59;100.00
28312;BME280;15572;48.810;9.148;2023-02-20T02:59:08;99210.91;;;7.52;100.00
28312;BME280;15572;48.810;9.148;2023-02-20T03:04:06;99210.41;;;7.39;100.00
28312;BME280;15572;48.810;9.148;2023-02-20T03:09:07;99207.94;;;7.28;100.00
28312;BME280;15572;48.810;9.148;2023-02-20T03:14:10;99201.69;;;7.28;100.00
28312;BME280;15572;48.810;9.148;2023-02-20T03:19:30;99213.63;;;7.43;100.00
28312;BME280;15572;48.810;9.148;2023-02-20T03:24:30;99203.44;;;7.46;100.00
28312;BME280;15572;48.810;9.148;2023-02-20T03:29:51;99204.28;;;7.47;100.00
28312;BME280;15572;48.810;9.148;2023-02-20T03:34:52;99189.56;;;7.41;100.00
28312;BME280;15572;48.810;9.148;2023-02-20T03:40:09;99203.88;;;7.42;100.00
28312;BME280;15572;48.810;9.148;2023-02-20T03:45:26;99218.75;;;7.46;100.00
28312;BME280;15572;48.810;9.148;2023-02-20T03:50:24;99203.72;;;7.43;100.00
28312;BME280;15572;48.810;9.148;2023-02-20T03:55:38;99211.41;;;7.38;100.00
28312;BME280;15572;48.810;9.148;2023-02-20T04:00:39;99206.25;;;7.45;100.00
28312;BME280;15572;48.810;9.148;2023-02-20T04:05:39;99197.94;;;7.38;100.00
28312;BME280;15572;48.810;9.148;2023-02-20T04:10:42;99198.16;;;7.27;100.00
28312;BME280;15572;48.810;9.148;2023-02-20T04:15:42;99189.47;;;7.15;100.00
28312;BME280;15572;48.810;9.148;2023-02-20T04:20:40;99178.72;;;7.06;100.00
28312;BME280;15572;48.810;9.148;2023-02-20T04:25:39;99176.53;;;6.92;100.00
28312;BME280;15572;48.810;9.148;2023-02-20T04:30:38;99181.97;;;6.82;100.00
28312;BME280;15572;48.810;9.148;2023-02-20T04:35:36;99178.19;;;6.75;100.00
28312;BME280;15572;48.810;9.148;2023-02-20T04:40:32;99189.72;;;6.67;100.00
28312;BME280;15572;48.810;9.148;2023-02-20T04:45:29;99176.53;;;6.64;100.00
28312;BME280;15572;48.810;9.148;2023-02-20T04:50:27;99181.81;;;6.56;100.00
28312;BME280;15572;48.810;9.148;2023-02-20T04:55:26;99184.91;;;6.52;100.00
28312;BME280;15572;48.810;9.148;2023-02-20T05:00:24;99198.41;;;6.42;100.00
28312;BME280;15572;48.810;9.148;2023-02-20T05:05:23;99197.91;;;6.29;100.00
28312;BME280;15572;48.810;9.148;2023-02-20T05:10:20;99195.06;;;6.21;100.00
28312;BME280;15572;48.810;9.148;2023-02-20T05:15:19;99188.28;;;6.17;100.00
28312;BME280;15572;48.810;9.148;2023-02-20T05:20:16;99190.88;;;6.09;100.00
28312;BME280;15572;48.810;9.148;2023-02-20T05:25:13;99190.19;;;5.97;100.00
28312;BME280;15572;48.810;9.148;2023-02-20T05:30:11;99185.63;;;5.78;100.00
28312;BME280;15572;48.810;9.148;2023-02-20T05:35:09;99176.44;;;5.62;100.00
28312;BME280;15572;48.810;9.148;2023-02-20T05:40:06;99181.56;;;5.55;100.00
28312;BME280;15572;48.810;9.148;2023-02-20T05:45:03;99185.34;;;5.53;100.00
28312;BME280;15572;48.810;9.148;2023-02-20T05:50:00;99180.66;;;5.45;100.00
28312;BME280;15572;48.810;9.148;2023-02-20T05:54:58;99184.06;;;5.47;100.00
28312;BME280;15572;48.810;9.148;2023-02-20T05:59:54;99180.41;;;5.38;100.00
28312;BME280;15572;48.810;9.148;2023-02-20T06:04:50;99183.09;;;5.29;100.00
28312;BME280;15572;48.810;9.148;2023-02-20T06:09:47;99174.31;;;5.27;100.00
28312;BME280;15572;48.810;9.148;2023-02-20T06:14:45;99184.19;;;5.26;100.00
28312;BME280;15572;48.810;9.148;2023-02-20T06:19:41;99182.25;;;5.38;100.00
28312;BME280;15572;48.810;9.148;2023-02-20T06:24:38;99186.34;;;5.42;100.00
28312;BME280;15572;48.810;9.148;2023-02-20T06:29:34;99189.19;;;5.50;100.00
28312;BME280;15572;48.810;9.148;2023-02-20T06:34:32;99191.16;;;5.48;100.00
28312;BME280;15572;48.810;9.148;2023-02-20T06:39:30;99206.72;;;5.44;100.00
28312;BME280;15572;48.810;9.148;2023-02-20T06:44:27;99205.44;;;5.39;100.00
28312;BME280;15572;48.810;9.148;2023-02-20T06:49:24;99203.00;;;5.36;100.00
28312;BME280;15572;48.810;9.148;2023-02-20T06:54:21;99204.56;;;5.38;100.00
28312;BME280;15572;48.810;9.148;2023-02-20T06:59:18;99212.63;;;5.58;100.00
28312;BME280;15572;48.810;9.148;2023-02-20T07:04:16;99216.59;;;5.63;100.00
28312;BME280;15572;48.810;9.148;2023-02-20T07:09:13;99219.72;;;5.78;100.00
28312;BME280;15572;48.810;9.148;2023-02-20T07:14:12;99217.75;;;5.89;100.00
28312;BME280;15572;48.810;9.148;2023-02-20T07:19:08;99220.16;;;6.02;100.00
28312;BME280;15572;48.810;9.148;2023-02-20T07:24:05;99226.94;;;6.16;100.00
28312;BME280;15572;48.810;9.148;2023-02-20T07:29:02;99220.53;;;6.26;100.00
28312;BME280;15572;48.810;9.148;2023-02-20T07:34:00;99229.44;;;6.37;100.00
28312;BME280;15572;48.810;9.148;2023-02-20T07:38:58;99226.75;;;6.46;100.00
28312;BME280;15572;48.810;9.148;2023-02-20T07:43:56;99220.16;;;6.58;100.00
28312;BME280;15572;48.810;9.148;2023-02-20T07:48:54;99228.47;;;6.74;100.00
28312;BME280;15572;48.810;9.148;2023-02-20T07:53:52;99229.00;;;6.88;100.00
28312;BME280;15572;48.810;9.148;2023-02-20T07:58:49;99210.63;;;7.01;100.00
28312;BME280;15572;48.810;9.148;2023-02-20T08:03:46;99213.69;;;7.15;100.00
28312;BME280;15572;48.810;9.148;2023-02-20T08:08:46;99213.56;;;7.35;100.00
28312;BME280;15572;48.810;9.148;2023-02-20T08:13:44;99205.72;;;7.41;100.00
28312;BME280;15572;48.810;9.148;2023-02-20T08:18:41;99194.72;;;7.52;100.00
28312;BME280;15572;48.810;9.148;2023-02-20T08:23:37;99194.03;;;7.68;99.77
28312;BME280;15572;48.810;9.148;2023-02-20T08:28:34;99195.09;;;7.75;99.66
28312;BME280;15572;48.810;9.148;2023-02-20T08:33:31;99203.72;;;7.96;96.17
28312;BME280;15572;48.810;9.148;2023-02-20T08:38:29;99190.59;;;8.01;95.06
28312;BME280;15572;48.810;9.148;2023-02-20T08:43:26;99192.38;;;8.11;94.55
28312;BME280;15572;48.810;9.148;2023-02-20T08:48:23;99181.34;;;8.22;93.24
28312;BME280;15572;48.810;9.148;2023-02-20T08:53:20;99186.19;;;8.36;92.06
28312;BME280;15572;48.810;9.148;2023-02-20T08:58:19;99187.97;;;8.53;90.67
28312;BME280;15572;48.810;9.148;2023-02-20T09:03:15;99189.59;;;8.72;88.40
28312;BME280;15572;48.810;9.148;2023-02-20T09:08:12;99178.88;;;8.88;86.52
28312;BME280;15572;48.810;9.148;2023-02-20T09:13:10;99166.63;;;9.10;84.63
28312;BME280;15572;48.810;9.148;2023-02-20T09:18:08;99155.22;;;9.32;79.91
28312;BME280;15572;48.810;9.148;2023-02-20T09:23:07;99153.22;;;9.50;75.94
28312;BME280;15572;48.810;9.148;2023-02-20T09:28:03;99155.09;;;9.74;74.10
28312;BME280;15572;48.810;9.148;2023-02-20T09:33:01;99150.53;;;9.91;74.75
28312;BME280;15572;48.810;9.148;2023-02-20T09:37:58;99155.09;;;10.06;73.14
28312;BME280;15572;48.810;9.148;2023-02-20T09:43:05;99149.84;;;10.37;71.90
28312;BME280;15572;48.810;9.148;2023-02-20T09:48:17;99149.16;;;10.51;71.41
28312;BME280;15572;48.810;9.148;2023-02-20T09:53:20;99151.34;;;10.48;70.08
28312;BME280;15572;48.810;9.148;2023-02-20T09:58:24;99143.31;;;10.71;69.01
28312;BME280;15572;48.810;9.148;2023-02-20T10:03:27;99140.25;;;10.74;69.69
28312;BME280;15572;48.810;9.148;2023-02-20T10:08:29;99130.66;;;10.63;70.59
28312;BME280;15572;48.810;9.148;2023-02-20T10:13:42;99113.75;;;10.53;72.18
28312;BME280;15572;48.810;9.148;2023-02-20T10:18:49;99119.84;;;10.55;71.20
28312;BME280;15572;48.810;9.148;2023-02-20T10:23:51;99121.72;;;10.63;70.65
28312;BME280;15572;48.810;9.148;2023-02-20T10:28:51;99114.47;;;10.47;72.11
28312;BME280;15572;48.810;9.148;2023-02-20T10:33:52;99120.00;;;10.62;71.57
28312;BME280;15572;48.810;9.148;2023-02-20T10:38:52;99116.41;;;10.69;70.31
28312;BME280;15572;48.810;9.148;2023-02-20T10:43:54;99111.63;;;10.79;69.52
28312;BME280;15572;48.810;9.148;2023-02-20T10:48:57;99102.94;;;10.92;68.45
28312;BME280;15572;48.810;9.148;2023-02-20T10:53:58;99110.91;;;10.93;67.97
28312;BME280;15572;48.810;9.148;2023-02-20T10:59:02;99096.59;;;11.08;67.14
28312;BME280;15572;48.810;9.148;2023-02-20T11:04:08;99098.53;;;11.22;66.16
28312;BME280;15572;48.810;9.148;2023-02-20T11:09:06;99093.25;;;11.51;63.20
28312;BME280;15572;48.810;9.148;2023-02-20T11:14:10;99082.41;;;11.51;63.86
28312;BME280;15572;48.810;9.148;2023-02-20T11:19:12;99073.13;;;11.91;62.39
28312;BME280;15572;48.810;9.148;2023-02-20T11:24:23;99077.56;;;12.21;61.71
28312;BME280;15572;48.810;9.148;2023-02-20T11:29:21;99063.16;;;12.65;58.19
28312;BME280;15572;48.810;9.148;2023-02-20T11:34:21;99055.81;;;12.80;57.60
28312;BME280;15572;48.810;9.148;2023-02-20T11:39:23;99045.31;;;13.28;56.13
28312;BME280;15572;48.810;9.148;2023-02-20T11:44:23;99036.97;;;13.29;55.40
28312;BME280;15572;48.810;9.148;2023-02-20T11:49:26;99031.81;;;13.62;54.59
28312;BME280;15572;48.810;9.148;2023-02-20T11:54:24;99021.59;;;13.64;54.12
28312;BME280;15572;48.810;9.148;2023-02-20T11:59:30;99013.56;;;13.77;53.19
28312;BME280;15572;48.810;9.148;2023-02-20T12:04:28;98998.41;;;13.96;52.86
28312;BME280;15572;48.810;9.148;2023-02-20T12:09:27;98999.66;;;13.94;53.52
28312;BME280;15572;48.810;9.148;2023-02-20T12:14:25;98978.03;;;14.20;52.09
28312;BME280;15572;48.810;9.148;2023-02-20T12:19:28;98973.63;;;14.19;50.13
28312;BME280;15572;48.810;9.148;2023-02-20T12:24:41;98968.13;;;14.12;50.83
28312;BME280;15572;48.810;9.148;2023-02-20T12:29:48;98961.09;;;14.65;48.91
28312;BME280;15572;48.810;9.148;2023-02-20T12:34:57;98945.47;;;15.07;49.12
28312;BME280;15572;48.810;9.148;2023-02-20T12:40:02;98931.88;;;15.20;47.23
28312;BME280;15572;48.810;9.148;2023-02-20T12:45:17;98913.81;;;15.26;47.05
28312;BME280;15572;48.810;9.148;2023-02-20T12:50:29;98918.47;;;15.65;47.16
28312;BME280;15572;48.810;9.148;2023-02-20T12:55:33;98903.94;;;15.77;45.84
28312;BME280;15572;48.810;9.148;2023-02-20T13:00:38;98903.09;;;15.83;44.53
28312;BME280;15572;48.810;9.148;2023-02-20T13:05:40;98879.50;;;16.09;43.67
28312;BME280;15572;48.810;9.148;2023-02-20T13:10:46;98871.25;;;16.28;43.35
28312;BME280;15572;48.810;9.148;2023-02-20T13:15:50;98868.78;;;16.58;41.76
28312;BME280;15572;48.810;9.148;2023-02-20T13:20:52;98857.66;;;16.91;41.04
28312;BME280;15572;48.810;9.148;2023-02-20T13:25:49;98851.44;;;16.77;41.85
28312;BME280;15572;48.810;9.148;2023-02-20T13:31:05;98824.31;;;16.82;41.63
28312;BME280;15572;48.810;9.148;2023-02-20T13:36:04;98822.00;;;17.04;37.53
28312;BME280;15572;48.810;9.148;2023-02-20T13:41:03;98806.13;;;17.19;37.08
28312;BME280;15572;48.810;9.148;2023-02-20T13:46:15;98798.44;;;17.28;36.30
28312;BME280;15572;48.810;9.148;2023-02-20T13:51:36;98789.88;;;17.67;35.35
28312;BME280;15572;48.810;9.148;2023-02-20T13:56:44;98782.47;;;18.04;35.68
28312;BME280;15572;48.810;9.148;2023-02-20T14:02:01;98776.09;;;18.22;32.76
28312;BME280;15572;48.810;9.148;2023-02-20T14:06:59;98769.97;;;18.08;33.26
28312;BME280;15572;48.810;9.148;2023-02-20T14:12:03;98767.16;;;18.15;32.24
28312;BME280;15572;48.810;9.148;2023-02-20T14:17:04;98774.56;;;17.96;31.61
28312;BME280;15572;48.810;9.148;2023-02-20T14:22:24;98785.59;;;17.72;30.51
28312;BME280;15572;48.810;9.148;2023-02-20T14:27:25;98775.59;;;17.41;31.98
28312;BME280;15572;48.810;9.148;2023-02-20T14:32:22;98770.75;;;17.18;36.73
28312;BME280;15572;48.810;9.148;2023-02-20T14:37:21;98776.75;;;16.46;41.53
28312;BME280;15572;48.810;9.148;2023-02-20T14:42:23;98746.66;;;16.52;40.20
28312;BME280;15572;48.810;9.148;2023-02-20T14:47:20;98750.41;;;16.64;38.40
28312;BME280;15572;48.810;9.148;2023-02-20T14:52:20;98743.41;;;16.68;35.67
28312;BME280;15572;48.810;9.148;2023-02-20T14:57:17;98734.06;;;16.51;36.84
28312;BME280;15572;48.810;9.148;2023-02-20T15:02:16;98717.44;;;16.59;36.43
28312;BME280;15572;48.810;9.148;2023-02-20T15:07:15;98725.63;;;16.59;36.84
28312;BME280;15572;48.810;9.148;2023-02-20T15:12:20;98733.31;;;16.69;36.80
28312;BME280;15572;48.810;9.148;2023-02-20T15:17:24;98733.28;;;16.44;37.50
28312;BME280;15572;48.810;9.148;2023-02-20T15:22:26;98741.53;;;16.37;36.26
28312;BME280;15572;48.810;9.148;2023-02-20T15:27:23;98738.56;;;16.39;33.51
28312;BME280;15572;48.810;9.148;2023-02-20T15:32:24;98729.47;;;16.14;34.59
28312;BME280;15572;48.810;9.148;2023-02-20T15:37:24;98726.50;;;15.84;34.33
28312;BME280;15572;48.810;9.148;2023-02-20T15:42:23;98723.41;;;15.67;35.36
28312;BME280;15572;48.810;9.148;2023-02-20T15:47:19;98723.25;;;15.49;36.20
28312;BME280;15572;48.810;9.148;2023-02-20T15:52:18;98705.91;;;15.24;37.57
28312;BME280;15572;48.810;9.148;2023-02-20T15:57:16;98714.31;;;15.22;37.98
28312;BME280;15572;48.810;9.148;2023-02-20T16:02:14;98711.41;;;15.10;39.17
28312;BME280;15572;48.810;9.148;2023-02-20T16:07:13;98704.31;;;14.90;40.08
28312;BME280;15572;48.810;9.148;2023-02-20T16:12:15;98701.59;;;14.57;41.25
28312;BME280;15572;48.810;9.148;2023-02-20T16:17:15;98704.47;;;14.22;42.19
28312;BME280;15572;48.810;9.148;2023-02-20T16:22:13;98704.84;;;14.00;42.47
28312;BME280;15572;48.810;9.148;2023-02-20T16:27:17;98693.53;;;13.83;42.23
28312;BME280;15572;48.810;9.148;2023-02-20T16:32:21;98694.31;;;13.70;42.23
28312;BME280;15572;48.810;9.148;2023-02-20T16:37:18;98696.56;;;13.54;42.41
28312;BME280;15572;48.810;9.148;2023-02-20T16:42:32;98691.66;;;13.36;42.99
28312;BME280;15572;48.810;9.148;2023-02-20T16:47:29;98684.03;;;13.12;43.73
28312;BME280;15572;48.810;9.148;2023-02-20T16:52:29;98693.97;;;12.98;43.74
28312;BME280;15572;48.810;9.148;2023-02-20T16:57:27;98690.06;;;12.51;44.66
28312;BME280;15572;48.810;9.148;2023-02-20T17:02:26;98687.41;;;12.58;43.53
28312;BME280;15572;48.810;9.148;2023-02-20T17:07:23;98677.00;;;12.40;42.95
28312;BME280;15572;48.810;9.148;2023-02-20T17:12:22;98688.22;;;12.31;42.91
28312;BME280;15572;48.810;9.148;2023-02-20T17:17:20;98692.69;;;12.17;43.08
28312;BME280;15572;48.810;9.148;2023-02-20T17:22:17;98693.22;;;11.85;44.67
28312;BME280;15572;48.810;9.148;2023-02-20T17:27:14;98687.41;;;11.37;46.44
28312;BME280;15572;48.810;9.148;2023-02-20T17:32:11;98702.56;;;10.87;47.92
28312;BME280;15572;48.810;9.148;2023-02-20T17:37:09;98700.94;;;10.49;49.01
28312;BME280;15572;48.810;9.148;2023-02-20T17:42:06;98688.56;;;10.32;49.57
28312;BME280;15572;48.810;9.148;2023-02-20T17:47:03;98700.50;;;10.23;48.65
28312;BME280;15572;48.810;9.148;2023-02-20T17:51:59;98703.56;;;9.97;49.77
28312;BME280;15572;48.810;9.148;2023-02-20T17:56:57;98687.19;;;9.67;51.19
28312;BME280;15572;48.810;9.148;2023-02-20T18:01:54;98688.91;;;9.38;52.68
28312;BME280;15572;48.810;9.148;2023-02-20T18:06:50;98688.97;;;9.21;53.17
28312;BME280;15572;48.810;9.148;2023-02-20T18:11:48;98690.25;;;8.95;55.55
28312;BME280;15572;48.810;9.148;2023-02-20T18:16:46;98688.31;;;8.72;56.28
28312;BME280;15572;48.810;9.148;2023-02-20T18:21:43;98683.13;;;8.47;53.97
28312;BME280;15572;48.810;9.148;2023-02-20T18:26:43;98697.66;;;8.37;57.48
28312;BME280;15572;48.810;9.148;2023-02-20T18:31:39;98706.72;;;8.28;59.26
28312;BME280;15572;48.810;9.148;2023-02-20T18:36:38;98707.41;;;8.14;58.97
28312;BME280;15572;48.810;9.148;2023-02-20T18:41:34;98707.91;;;8.01;58.95
28312;BME280;15572;48.810;9.148;2023-02-20T18:52:24;98706.38;;;7.67;59.70
28312;BME280;15572;48.810;9.148;2023-02-20T18:57:21;98701.94;;;7.49;61.62
28312;BME280;15572;48.810;9.148;2023-02-20T19:02:17;98695.50;;;7.26;62.57
28312;BME280;15572;48.810;9.148;2023-02-20T19:07:14;98702.19;;;7.14;63.18
28312;BME280;15572;48.810;9.148;2023-02-20T19:12:12;98691.72;;;7.03;63.19
28312;BME280;15572;48.810;9.148;2023-02-20T19:17:10;98684.63;;;6.94;62.38
28312;BME280;15572;48.810;9.148;2023-02-20T19:22:07;98693.00;;;6.91;60.12
28312;BME280;15572;48.810;9.148;2023-02-20T19:27:04;98689.56;;;6.72;61.54
28312;BME280;15572;48.810;9.148;2023-02-20T19:32:01;98694.50;;;6.59;62.13
28312;BME280;15572;48.810;9.148;2023-02-20T19:36:58;98684.03;;;6.48;63.62
28312;BME280;15572;48.810;9.148;2023-02-20T19:41:55;98691.13;;;6.31;64.58
28312;BME280;15572;48.810;9.148;2023-02-20T19:46:51;98690.25;;;6.23;65.19
28312;BME280;15572;48.810;9.148;2023-02-20T19:51:51;98690.19;;;6.15;66.18
28312;BME280;15572;48.810;9.148;2023-02-20T19:56:49;98689.59;;;6.03;64.45
28312;BME280;15572;48.810;9.148;2023-02-20T20:01:47;98682.25;;;5.87;65.39
28312;BME280;15572;48.810;9.148;2023-02-20T20:06:45;98678.59;;;5.79;67.23
28312;BME280;15572;48.810;9.148;2023-02-20T20:11:43;98686.59;;;5.71;67.95
28312;BME280;15572;48.810;9.148;2023-02-20T20:16:39;98682.84;;;5.64;67.92
28312;BME280;15572;48.810;9.148;2023-02-20T20:21:37;98683.91;;;5.53;70.00
28312;BME280;15572;48.810;9.148;2023-02-20T20:26:34;98684.06;;;5.51;70.73
28312;BME280;15572;48.810;9.148;2023-02-20T20:31:34;98672.88;;;5.38;69.82
28312;BME280;15572;48.810;9.148;2023-02-20T20:36:31;98682.81;;;5.28;69.97
28312;BME280;15572;48.810;9.148;2023-02-20T20:41:28;98677.22;;;5.22;72.16
28312;BME280;15572;48.810;9.148;2023-02-20T20:46:24;98667.22;;;5.14;72.33
28312;BME280;15572;48.810;9.148;2023-02-20T20:51:22;98676.19;;;5.05;72.57
28312;BME280;15572;48.810;9.148;2023-02-20T20:56:19;98678.88;;;5.05;73.21
28312;BME280;15572;48.810;9.148;2023-02-20T21:01:16;98677.41;;;5.11;72.87
28312;BME280;15572;48.810;9.148;2023-02-20T21:06:13;98674.34;;;5.05;75.57
28312;BME280;15572;48.810;9.148;2023-02-20T21:11:11;98675.69;;;4.92;74.81
28312;BME280;15572;48.810;9.148;2023-02-20T21:16:07;98669.13;;;4.77;75.93
28312;BME280;15572;48.810;9.148;2023-02-20T21:21:04;98685.97;;;4.69;75.59
28312;BME280;15572;48.810;9.148;2023-02-20T21:26:01;98671.84;;;4.67;75.41
28312;BME280;15572;48.810;9.148;2023-02-20T21:30:58;98675.25;;;4.69;76.24
28312;BME280;15572;48.810;9.148;2023-02-20T21:35:55;98673.75;;;4.57;76.48
28312;BME280;15572;48.810;9.148;2023-02-20T21:40:52;98660.91;;;4.51;75.25
28312;BME280;15572;48.810;9.148;2023-02-20T21:45:49;98676.16;;;4.50;74.43
28312;BME280;15572;48.810;9.148;2023-02-20T21:50:47;98664.19;;;4.45;75.92
28312;BME280;15572;48.810;9.148;2023-02-20T21:55:43;98668.69;;;4.44;76.68
28312;BME280;15572;48.810;9.148;2023-02-20T22:00:40;98663.38;;;4.35;78.10
28312;BME280;15572;48.810;9.148;2023-02-20T22:05:35;98669.91;;;4.13;79.00
28312;BME280;15572;48.810;9.148;2023-02-20T22:10:32;98665.13;;;4.07;81.21
28312;BME280;15572;48.810;9.148;2023-02-20T22:15:46;98670.94;;;4.02;81.68
28312;BME280;15572;48.810;9.148;2023-02-20T22:21:00;98660.50;;;3.99;81.75
28312;BME280;15572;48.810;9.148;2023-02-20T22:26:16;98656.00;;;3.90;83.77
28312;BME280;15572;48.810;9.148;2023-02-20T22:31:30;98659.53;;;3.91;82.74
28312;BME280;15572;48.810;9.148;2023-02-20T22:36:47;98658.97;;;3.87;83.54
28312;BME280;15572;48.810;9.148;2023-02-20T22:42:03;98665.19;;;3.78;83.58
28312;BME280;15572;48.810;9.148;2023-02-20T22:47:17;98676.06;;;3.67;84.57
28312;BME280;15572;48.810;9.148;2023-02-20T22:52:31;98673.50;;;3.65;85.41
28312;BME280;15572;48.810;9.148;2023-02-20T22:57:46;98667.59;;;3.71;84.60
28312;BME280;15572;48.810;9.148;2023-02-20T23:03:00;98667.59;;;3.71;84.45
28312;BME280;15572;48.810;9.148;2023-02-20T23:08:14;98663.09;;;3.72;84.70
28312;BME280;15572;48.810;9.148;2023-02-20T23:13:29;98657.00;;;3.70;85.27
28312;BME280;15572;48.810;9.148;2023-02-20T23:18:43;98653.78;;;3.57;87.16
28312;BME280;15572;48.810;9.148;2023-02-20T23:23:57;98644.63;;;3.50;87.41
28312;BME280;15572;48.810;9.148;2023-02-20T23:29:12;98648.00;;;3.32;88.91
28312;BME280;15572;48.810;9.148;2023-02-20T23:34:27;98635.03;;;3.18;88.70
28312;BME280;15572;48.810;9.148;2023-02-20T23:39:42;98633.91;;;3.21;90.70
28312;BME280;15572;48.810;9.148;2023-02-20T23:44:57;98633.63;;;3.24;90.16
28312;BME280;15572;48.810;9.148;2023-02-20T23:50:11;98635.34;;;3.25;89.69
28312;BME280;15572;48.810;9.148;2023-02-20T23:55:25;98634.19;;;3.18;89.64
